Time;durP1;ratioP1;P1;durP2;ratioP2;P2;SDS_P1;SDS_P2;PMS_P1;PMS_P2;Temp;Humidity;BMP_temperature;BMP_pressure;BME280_temperature;BME280_humidity;BME280_pressure;Samples;Min_cycle;Max_cycle;Signal;HPM_P1;HPM_P2
2022/09/01 00:02:15;;;;;;;7.13;4.50;;;;;;;;;;4949336;28;20209;-75
2022/09/01 00:04:46;;;;;;;7.17;4.33;;;;;;;;;;4946357;28;20220;-74
2022/09/01 00:07:13;;;;;;;6.30;4.10;;;;;;;;;;4951716;28;20214;-75
2022/09/01 00:09:41;;;;;;;6.20;3.97;;;;;;;;;;4950516;28;20230;-75
2022/09/01 00:12:09;;;;;;;6.40;4.30;;;;;;;;;;4944320;29;20646;-75
2022/09/01 00:14:39;;;;;;;7.20;4.20;;;;;;;;;;4943446;28;20405;-74
2022/09/01 00:17:08;;;;;;;7.73;3.90;;;;;;;;;;4947421;28;20727;-75
2022/09/01 00:19:38;;;;;;;8.47;4.10;;;;;;;;;;4946662;28;20198;-75
2022/09/01 00:22:06;;;;;;;10.93;4.00;;;;;;;;;;4944942;28;20657;-75
2022/09/01 00:24:33;;;;;;;7.47;4.30;;;;;;;;;;4946604;28;20253;-74
2022/09/01 00:27:00;;;;;;;10.43;4.03;;;;;;;;;;4951171;28;20712;-75
2022/09/01 00:29:27;;;;;;;7.60;4.30;;;;;;;;;;4948642;28;20236;-74
2022/09/01 00:31:54;;;;;;;8.70;4.10;;;;;;;;;;4942549;28;20303;-75
2022/09/01 00:34:22;;;;;;;6.10;4.23;;;;;;;;;;4950318;28;20648;-75
2022/09/01 00:36:51;;;;;;;6.70;3.67;;;;;;;;;;4948378;28;20223;-75
2022/09/01 00:39:18;;;;;;;8.57;4.10;;;;;;;;;;4947009;29;20301;-75
2022/09/01 00:41:46;;;;;;;6.70;4.13;;;;;;;;;;4945823;28;20297;-75
2022/09/01 00:44:14;;;;;;;5.27;3.90;;;;;;;;;;4949609;28;20206;-75
2022/09/01 00:46:43;;;;;;;6.37;3.87;;;;;;;;;;4948606;28;20334;-77
2022/09/01 00:49:13;;;;;;;6.73;4.30;;;;;;;;;;4948572;28;20709;-75
2022/09/01 00:51:41;;;;;;;6.57;4.37;;;;;;;;;;4941007;29;20782;-75
2022/09/01 00:54:12;;;;;;;5.87;4.17;;;;;;;;;;4948793;28;20210;-76
2022/09/01 00:56:40;;;;;;;7.73;4.50;;;;;;;;;;4950331;28;20240;-75
2022/09/01 00:59:08;;;;;;;7.20;4.23;;;;;;;;;;4948872;28;20199;-75
2022/09/01 01:01:35;;;;;;;5.83;4.43;;;;;;;;;;4947063;28;20707;-75
2022/09/01 01:04:03;;;;;;;8.17;4.23;;;;;;;;;;4945466;28;20217;-77
2022/09/01 01:06:32;;;;;;;6.20;4.10;;;;;;;;;;4945954;28;20578;-76
2022/09/01 01:08:59;;;;;;;7.93;4.17;;;;;;;;;;4946224;28;20316;-77
2022/09/01 01:11:30;;;;;;;5.73;3.77;;;;;;;;;;4946515;28;20253;-75
2022/09/01 01:13:59;;;;;;;9.20;4.40;;;;;;;;;;4946382;28;20258;-76
2022/09/01 01:16:28;;;;;;;6.03;4.00;;;;;;;;;;4946797;28;20333;-76
2022/09/01 01:18:55;;;;;;;7.47;3.97;;;;;;;;;;4944717;28;20221;-76
2022/09/01 01:24:20;;;;;;;6.03;4.13;;;;;;;;;;4945859;28;20256;-76
2022/09/01 01:26:48;;;;;;;8.27;4.83;;;;;;;;;;4945377;28;20759;-76
2022/09/01 01:29:16;;;;;;;9.20;4.73;;;;;;;;;;4945456;28;20359;-76
2022/09/01 01:31:43;;;;;;;9.30;4.67;;;;;;;;;;4947197;28;20740;-75
2022/09/01 01:34:11;;;;;;;5.50;4.17;;;;;;;;;;4946288;28;20670;-76
2022/09/01 01:36:40;;;;;;;7.63;4.37;;;;;;;;;;4941132;28;20237;-76
2022/09/01 01:39:08;;;;;;;7.17;4.30;;;;;;;;;;4944403;28;20585;-76
2022/09/01 01:41:39;;;;;;;9.40;4.40;;;;;;;;;;4945676;29;20674;-76
2022/09/01 01:44:07;;;;;;;6.20;4.03;;;;;;;;;;4943532;28;20304;-76
2022/09/01 01:46:36;;;;;;;8.97;4.50;;;;;;;;;;4948160;28;20600;-76
2022/09/01 01:49:03;;;;;;;7.33;4.90;;;;;;;;;;4949485;28;20241;-76
2022/09/01 01:51:31;;;;;;;7.43;5.03;;;;;;;;;;4947898;29;20213;-76
2022/09/01 01:54:04;;;;;;;10.23;4.83;;;;;;;;;;4942487;28;20207;-76
2022/09/01 01:56:31;;;;;;;8.53;4.50;;;;;;;;;;4950777;28;20237;-76
2022/09/01 01:59:01;;;;;;;11.77;4.83;;;;;;;;;;4949585;28;20207;-76
2022/09/01 02:01:30;;;;;;;9.20;4.60;;;;;;;;;;4950614;28;20225;-76
2022/09/01 02:03:58;;;;;;;7.03;4.80;;;;;;;;;;4949454;28;20234;-75
2022/09/01 02:06:26;;;;;;;7.57;4.70;;;;;;;;;;4949307;28;20245;-76
2022/09/01 02:08:56;;;;;;;8.07;4.30;;;;;;;;;;4948202;29;20226;-76
2022/09/01 02:11:24;;;;;;;11.33;4.63;;;;;;;;;;4952616;28;20205;-76
2022/09/01 02:13:55;;;;;;;6.73;4.27;;;;;;;;;;4948197;28;20210;-76
2022/09/01 02:16:23;;;;;;;6.90;4.00;;;;;;;;;;4950403;28;20640;-76
2022/09/01 02:18:52;;;;;;;8.23;3.97;;;;;;;;;;4949374;28;20215;-76
2022/09/01 02:21:21;;;;;;;9.57;4.37;;;;;;;;;;4950565;29;20213;-76
2022/09/01 02:23:49;;;;;;;6.40;3.90;;;;;;;;;;4947826;28;20745;-76
2022/09/01 02:26:17;;;;;;;5.80;3.83;;;;;;;;;;4950843;28;20256;-76
2022/09/01 02:28:48;;;;;;;7.87;4.63;;;;;;;;;;4949831;29;20321;-75
2022/09/01 02:31:19;;;;;;;6.57;4.40;;;;;;;;;;4950041;29;20206;-76
2022/09/01 02:33:48;;;;;;;10.33;4.50;;;;;;;;;;4947573;29;20215;-75
2022/09/01 02:36:18;;;;;;;10.93;4.70;;;;;;;;;;4947904;28;20628;-75
2022/09/01 02:38:47;;;;;;;11.93;4.30;;;;;;;;;;4948496;28;20206;-76
2022/09/01 02:41:15;;;;;;;8.43;4.67;;;;;;;;;;4948691;28;20214;-76
2022/09/01 02:43:43;;;;;;;8.30;4.30;;;;;;;;;;4948407;29;20238;-76
2022/09/01 02:46:10;;;;;;;7.67;4.50;;;;;;;;;;4948757;29;20746;-76
2022/09/01 02:48:39;;;;;;;7.00;4.40;;;;;;;;;;4948978;28;20240;-76
2022/09/01 02:51:09;;;;;;;6.37;4.03;;;;;;;;;;4949477;28;20213;-75
2022/09/01 02:53:38;;;;;;;10.53;4.50;;;;;;;;;;4951631;29;20304;-75
2022/09/01 02:56:08;;;;;;;7.43;4.40;;;;;;;;;;4950608;29;20279;-75
2022/09/01 02:58:39;;;;;;;6.60;4.27;;;;;;;;;;4949513;28;20206;-76
2022/09/01 03:01:11;;;;;;;7.43;4.60;;;;;;;;;;4947476;28;20230;-76
2022/09/01 03:03:38;;;;;;;6.80;4.47;;;;;;;;;;4948081;28;20202;-76
2022/09/01 03:06:09;;;;;;;6.30;4.37;;;;;;;;;;4946610;28;20603;-76
2022/09/01 03:08:38;;;;;;;10.73;4.60;;;;;;;;;;4947862;28;20217;-76
2022/09/01 03:11:09;;;;;;;7.97;4.07;;;;;;;;;;4950554;28;20241;-75
2022/09/01 03:13:37;;;;;;;6.80;4.20;;;;;;;;;;4947229;28;20226;-75
2022/09/01 03:16:04;;;;;;;7.17;4.67;;;;;;;;;;4953473;28;20231;-75
2022/09/01 03:18:32;;;;;;;6.30;4.07;;;;;;;;;;4951080;28;20210;-76
2022/09/01 03:20:59;;;;;;;7.47;4.70;;;;;;;;;;4948763;29;20210;-76
2022/09/01 03:23:27;;;;;;;9.63;4.13;;;;;;;;;;4945065;28;20685;-75
2022/09/01 03:25:55;;;;;;;6.07;4.37;;;;;;;;;;4947729;28;20253;-76
2022/09/01 03:28:22;;;;;;;5.97;4.07;;;;;;;;;;4950355;28;20218;-76
2022/09/01 03:30:52;;;;;;;7.47;4.33;;;;;;;;;;4950687;28;20237;-76
2022/09/01 03:33:20;;;;;;;7.13;4.63;;;;;;;;;;4950584;29;20708;-76
2022/09/01 03:35:48;;;;;;;8.50;4.67;;;;;;;;;;4949649;29;20221;-76
2022/09/01 03:38:23;;;;;;;6.13;4.27;;;;;;;;;;4945512;29;20203;-76
2022/09/01 03:40:53;;;;;;;7.17;4.53;;;;;;;;;;4951753;28;20210;-75
2022/09/01 03:43:25;;;;;;;6.73;4.30;;;;;;;;;;4951284;28;20301;-76
2022/09/01 03:45:54;;;;;;;6.20;4.30;;;;;;;;;;4949001;28;20230;-76
2022/09/01 03:48:23;;;;;;;6.70;4.30;;;;;;;;;;4947615;29;20218;-76
2022/09/01 03:50:51;;;;;;;7.87;4.70;;;;;;;;;;4949647;28;20254;-76
2022/09/01 03:53:19;;;;;;;7.63;4.43;;;;;;;;;;4945867;29;20213;-76
2022/09/01 03:55:47;;;;;;;9.33;4.67;;;;;;;;;;4944204;29;20300;-76
2022/09/01 03:58:19;;;;;;;8.43;5.10;;;;;;;;;;4945983;28;20700;-76
2022/09/01 04:00:47;;;;;;;6.33;4.83;;;;;;;;;;4946509;28;20194;-76
2022/09/01 04:03:20;;;;;;;11.57;5.30;;;;;;;;;;4947835;29;20207;-76
2022/09/01 04:05:48;;;;;;;13.73;5.30;;;;;;;;;;4947585;29;20570;-76
2022/09/01 04:08:16;;;;;;;11.07;5.13;;;;;;;;;;4944805;29;20218;-76
2022/09/01 04:10:48;;;;;;;9.63;5.40;;;;;;;;;;4947931;28;20229;-75
2022/09/01 04:13:17;;;;;;;7.23;4.80;;;;;;;;;;4941019;29;20219;-76
2022/09/01 04:15:44;;;;;;;10.17;4.80;;;;;;;;;;4943398;29;20240;-76
2022/09/01 04:18:18;;;;;;;11.20;4.80;;;;;;;;;;4946579;28;20217;-75
2022/09/01 04:20:49;;;;;;;8.63;4.37;;;;;;;;;;4944935;28;20619;-76
2022/09/01 04:23:20;;;;;;;11.33;4.50;;;;;;;;;;4946060;29;20245;-75
2022/09/01 04:25:49;;;;;;;7.17;4.67;;;;;;;;;;4945709;28;20587;-76
2022/09/01 04:28:23;;;;;;;12.90;4.97;;;;;;;;;;4946890;28;20653;-76
2022/09/01 04:30:52;;;;;;;8.27;4.30;;;;;;;;;;4940773;28;20321;-76
2022/09/01 04:33:19;;;;;;;9.87;5.47;;;;;;;;;;4947356;28;20206;-76
2022/09/01 04:35:46;;;;;;;7.47;5.50;;;;;;;;;;4945671;29;20223;-75
2022/09/01 04:38:14;;;;;;;5.57;4.33;;;;;;;;;;4942971;29;20297;-76
2022/09/01 04:40:42;;;;;;;12.03;5.43;;;;;;;;;;4945747;28;20272;-76
2022/09/01 04:43:10;;;;;;;8.27;5.00;;;;;;;;;;4945067;28;20210;-76
2022/09/01 04:45:39;;;;;;;8.63;4.87;;;;;;;;;;4910595;28;1068268;-75
2022/09/01 04:48:07;;;;;;;8.63;4.77;;;;;;;;;;4946824;29;20202;-75
2022/09/01 04:50:36;;;;;;;9.80;4.80;;;;;;;;;;4946278;28;20248;-76
2022/09/01 04:53:05;;;;;;;7.83;4.60;;;;;;;;;;4948378;29;20681;-75
2022/09/01 04:55:32;;;;;;;14.13;4.40;;;;;;;;;;4950866;28;20214;-75
2022/09/01 04:58:03;;;;;;;11.57;5.00;;;;;;;;;;4949361;28;20313;-76
2022/09/01 05:00:31;;;;;;;12.60;4.90;;;;;;;;;;4944908;29;20789;-76
2022/09/01 05:03:03;;;;;;;7.20;4.03;;;;;;;;;;4945087;28;20218;-75
2022/09/01 05:05:38;;;;;;;10.40;4.90;;;;;;;;;;4945393;29;20622;-75
2022/09/01 05:08:05;;;;;;;12.37;4.60;;;;;;;;;;4946391;29;20213;-76
2022/09/01 05:10:36;;;;;;;13.20;4.73;;;;;;;;;;4944473;28;20313;-76
2022/09/01 05:13:08;;;;;;;11.93;4.23;;;;;;;;;;4949540;28;20256;-76
2022/09/01 05:15:38;;;;;;;6.47;4.37;;;;;;;;;;4948558;28;20202;-76
2022/09/01 05:18:08;;;;;;;7.30;4.80;;;;;;;;;;4942773;28;20681;-76
2022/09/01 05:20:41;;;;;;;6.67;4.20;;;;;;;;;;4946134;28;20213;-76
2022/09/01 05:23:11;;;;;;;11.33;3.87;;;;;;;;;;4942536;29;20214;-76
2022/09/01 05:25:39;;;;;;;6.57;3.87;;;;;;;;;;4942062;28;20205;-75
2022/09/01 05:28:08;;;;;;;8.87;3.80;;;;;;;;;;4942615;28;20210;-76
2022/09/01 05:30:37;;;;;;;14.90;3.50;;;;;;;;;;4949805;28;20230;-76
2022/09/01 05:33:08;;;;;;;9.43;3.30;;;;;;;;;;4952254;29;20229;-77
2022/09/01 05:35:37;;;;;;;8.17;3.20;;;;;;;;;;4944907;28;20218;-77
2022/09/01 05:38:07;;;;;;;3.63;2.70;;;;;;;;;;4945498;28;20305;-76
2022/09/01 05:40:40;;;;;;;6.13;2.87;;;;;;;;;;4944595;28;20217;-76
2022/09/01 05:43:09;;;;;;;8.03;2.93;;;;;;;;;;4951780;29;20262;-76
2022/09/01 05:45:37;;;;;;;12.13;2.80;;;;;;;;;;4945952;28;20297;-76
2022/09/01 05:48:05;;;;;;;5.93;2.60;;;;;;;;;;4945816;28;20428;-76
2022/09/01 05:50:32;;;;;;;7.17;2.40;;;;;;;;;;4946159;29;20226;-76
2022/09/01 05:53:07;;;;;;;4.47;2.30;;;;;;;;;;4949598;29;20207;-76
2022/09/01 05:55:37;;;;;;;6.37;2.50;;;;;;;;;;4958018;28;20208;-77
2022/09/01 05:58:04;;;;;;;5.97;2.23;;;;;;;;;;4957638;28;20207;-76
2022/09/01 06:00:33;;;;;;;3.17;2.00;;;;;;;;;;4948816;29;20205;-76
2022/09/01 06:03:03;;;;;;;6.17;2.17;;;;;;;;;;4949095;29;20262;-76
2022/09/01 06:05:31;;;;;;;2.87;1.90;;;;;;;;;;4949068;29;20215;-76
2022/09/01 06:08:00;;;;;;;2.83;2.20;;;;;;;;;;4950477;28;20231;-76
2022/09/01 06:10:29;;;;;;;5.37;2.00;;;;;;;;;;4948778;29;20226;-76
2022/09/01 06:13:01;;;;;;;6.30;1.90;;;;;;;;;;4948423;29;21049;-76
2022/09/01 06:15:29;;;;;;;4.37;2.23;;;;;;;;;;4949058;28;20207;-76
2022/09/01 06:17:57;;;;;;;3.63;2.37;;;;;;;;;;4949666;28;20242;-76
2022/09/01 06:20:25;;;;;;;6.00;3.13;;;;;;;;;;4950621;28;20595;-76
2022/09/01 06:22:52;;;;;;;10.67;2.70;;;;;;;;;;4950017;28;20210;-76
2022/09/01 06:25:29;;;;;;;10.70;3.00;;;;;;;;;;4946959;28;20217;-75
2022/09/01 06:27:59;;;;;;;11.23;3.33;;;;;;;;;;4949970;28;20230;-75
2022/09/01 06:30:28;;;;;;;9.27;3.10;;;;;;;;;;4951019;29;20222;-76
2022/09/01 06:32:56;;;;;;;5.70;3.10;;;;;;;;;;4950253;29;20653;-76
2022/09/01 06:35:28;;;;;;;10.03;3.77;;;;;;;;;;4949216;28;20207;-76
2022/09/01 06:37:57;;;;;;;9.63;4.23;;;;;;;;;;4950345;28;20235;-76
2022/09/01 06:40:26;;;;;;;15.33;4.80;;;;;;;;;;4949839;28;20289;-76
2022/09/01 06:42:53;;;;;;;12.57;3.73;;;;;;;;;;4950221;28;20234;-76
2022/09/01 06:45:21;;;;;;;11.33;3.80;;;;;;;;;;4945184;29;20314;-76
2022/09/01 06:47:51;;;;;;;7.33;3.30;;;;;;;;;;4949006;28;20275;-76
2022/09/01 06:50:22;;;;;;;8.63;3.43;;;;;;;;;;4943951;28;20763;-76
2022/09/01 06:53:00;;;;;;;10.17;2.90;;;;;;;;;;4946228;28;20218;-76
2022/09/01 06:55:36;;;;;;;12.40;4.03;;;;;;;;;;4946927;29;20206;-75
2022/09/01 06:58:07;;;;;;;11.27;3.80;;;;;;;;;;4950746;28;20210;-76
2022/09/01 07:00:40;;;;;;;8.23;2.63;;;;;;;;;;4945541;29;20206;-76
2022/09/01 07:03:13;;;;;;;7.87;2.83;;;;;;;;;;4950277;28;20207;-76
2022/09/01 07:05:44;;;;;;;7.53;3.00;;;;;;;;;;4944986;28;20214;-75
2022/09/01 07:08:16;;;;;;;6.67;2.10;;;;;;;;;;4950699;29;20209;-75
2022/09/01 07:10:48;;;;;;;7.23;2.37;;;;;;;;;;4948774;28;20267;-75
2022/09/01 07:13:21;;;;;;;3.53;1.70;;;;;;;;;;4941773;28;20212;-75
2022/09/01 07:15:50;;;;;;;4.50;1.90;;;;;;;;;;4949659;28;20261;-76
2022/09/01 07:18:19;;;;;;;3.57;1.70;;;;;;;;;;4942660;28;20678;-75
2022/09/01 07:20:47;;;;;;;3.70;1.70;;;;;;;;;;4951893;28;20230;-76
2022/09/01 07:23:16;;;;;;;10.90;1.70;;;;;;;;;;4948051;29;20615;-75
2022/09/01 07:25:46;;;;;;;8.23;2.03;;;;;;;;;;4943876;28;20221;-75
2022/09/01 07:28:14;;;;;;;6.73;1.77;;;;;;;;;;4942059;28;20199;-74
2022/09/01 07:30:42;;;;;;;5.53;1.70;;;;;;;;;;4944476;29;20650;-75
2022/09/01 07:33:11;;;;;;;3.53;1.40;;;;;;;;;;4940423;28;20685;-75
2022/09/01 07:35:39;;;;;;;2.63;1.50;;;;;;;;;;4945329;28;20207;-75
2022/09/01 07:38:08;;;;;;;2.07;0.77;;;;;;;;;;4944670;28;20214;-75
2022/09/01 07:40:37;;;;;;;3.13;1.27;;;;;;;;;;4947643;29;20289;-75
2022/09/01 07:43:07;;;;;;;4.90;1.60;;;;;;;;;;4944629;28;20211;-74
2022/09/01 07:45:36;;;;;;;3.73;1.10;;;;;;;;;;4942818;28;20217;-75
2022/09/01 07:48:05;;;;;;;3.17;1.17;;;;;;;;;;4950078;28;20202;-75
2022/09/01 07:50:33;;;;;;;4.70;1.13;;;;;;;;;;4949772;28;20716;-75
2022/09/01 07:53:00;;;;;;;2.27;1.00;;;;;;;;;;4947988;28;20297;-75
2022/09/01 07:55:28;;;;;;;3.27;1.30;;;;;;;;;;4948652;28;20232;-75
2022/09/01 07:57:58;;;;;;;7.90;1.30;;;;;;;;;;4949580;28;20319;-75
2022/09/01 08:00:27;;;;;;;2.67;1.17;;;;;;;;;;4949258;28;20201;-75
2022/09/01 08:02:54;;;;;;;6.17;1.40;;;;;;;;;;4948894;28;20246;-75
2022/09/01 08:05:25;;;;;;;2.70;0.97;;;;;;;;;;4948980;29;20285;-75
2022/09/01 08:07:53;;;;;;;6.07;1.20;;;;;;;;;;4943174;28;20230;-74
2022/09/01 08:10:20;;;;;;;1.50;1.00;;;;;;;;;;4942525;28;20759;-74
2022/09/01 08:12:47;;;;;;;2.10;0.90;;;;;;;;;;4946787;28;20225;-75
2022/09/01 08:15:15;;;;;;;7.83;1.30;;;;;;;;;;4947095;29;20761;-75
2022/09/01 08:17:45;;;;;;;5.27;1.50;;;;;;;;;;4950014;29;20222;-75
2022/09/01 08:20:13;;;;;;;3.37;1.10;;;;;;;;;;4945783;28;20202;-75
2022/09/01 08:22:40;;;;;;;2.23;1.33;;;;;;;;;;4947452;28;20222;-75
2022/09/01 08:25:08;;;;;;;5.53;1.30;;;;;;;;;;4947157;29;20209;-76
2022/09/01 08:27:37;;;;;;;7.67;1.30;;;;;;;;;;4945674;28;20314;-75
2022/09/01 08:30:06;;;;;;;3.47;1.03;;;;;;;;;;4947401;28;20238;-75
2022/09/01 08:32:34;;;;;;;4.80;1.63;;;;;;;;;;4946847;28;20203;-74
2022/09/01 08:35:03;;;;;;;41.63;3.60;;;;;;;;;;4946294;29;20265;-75
2022/09/01 08:37:31;;;;;;;29.07;2.87;;;;;;;;;;4942097;29;20235;-75
2022/09/01 08:39:58;;;;;;;24.23;2.97;;;;;;;;;;4945811;29;20210;-74
2022/09/01 08:42:32;;;;;;;3.90;1.53;;;;;;;;;;4950775;28;20205;-75
2022/09/01 08:45:03;;;;;;;9.27;1.53;;;;;;;;;;4947334;28;20213;-75
2022/09/01 08:47:31;;;;;;;7.50;1.80;;;;;;;;;;4945831;28;20282;-75
2022/09/01 08:49:59;;;;;;;3.00;1.20;;;;;;;;;;4949145;28;20206;-75
2022/09/01 08:52:29;;;;;;;3.67;1.67;;;;;;;;;;4944156;28;20235;-74
2022/09/01 08:54:59;;;;;;;2.13;1.37;;;;;;;;;;4946522;28;20216;-74
2022/09/01 08:57:30;;;;;;;2.23;1.17;;;;;;;;;;4944562;28;20233;-74
2022/09/01 08:59:57;;;;;;;4.80;1.30;;;;;;;;;;4944896;28;20220;-74
2022/09/01 09:02:31;;;;;;;19.77;2.27;;;;;;;;;;4948686;28;20296;-74
2022/09/01 09:05:03;;;;;;;29.60;3.80;;;;;;;;;;4942150;29;20207;-75
2022/09/01 09:07:39;;;;;;;5.07;1.77;;;;;;;;;;4948581;28;20728;-75
2022/09/01 09:10:10;;;;;;;11.57;1.70;;;;;;;;;;4945166;28;20210;-74
2022/09/01 09:12:50;;;;;;;4.07;1.20;;;;;;;;;;4946838;28;20650;-75
2022/09/01 09:15:24;;;;;;;1.63;1.07;;;;;;;;;;4943864;28;20225;-74
2022/09/01 09:17:58;;;;;;;4.23;1.53;;;;;;;;;;4945656;28;20229;-74
2022/09/01 09:20:25;;;;;;;4.70;1.10;;;;;;;;;;4944602;28;20289;-74
2022/09/01 09:22:54;;;;;;;4.17;1.23;;;;;;;;;;4949938;28;20299;-74
2022/09/01 09:25:23;;;;;;;2.20;1.10;;;;;;;;;;4945209;28;20207;-74
2022/09/01 09:27:51;;;;;;;2.30;1.30;;;;;;;;;;4941382;29;20726;-74
2022/09/01 09:30:21;;;;;;;2.23;1.30;;;;;;;;;;4950426;28;20302;-75
2022/09/01 09:32:50;;;;;;;6.00;1.20;;;;;;;;;;4944234;28;20211;-75
2022/09/01 09:35:18;;;;;;;2.83;1.57;;;;;;;;;;4943711;29;20293;-73
2022/09/01 09:37:46;;;;;;;2.47;1.50;;;;;;;;;;4940547;28;20226;-74
2022/09/01 09:40:15;;;;;;;4.53;1.60;;;;;;;;;;4944434;28;20245;-74
2022/09/01 09:42:44;;;;;;;6.10;1.40;;;;;;;;;;4941827;29;20214;-74
2022/09/01 09:45:22;;;;;;;2.80;1.20;;;;;;;;;;4944474;28;20230;-75
2022/09/01 09:47:49;;;;;;;2.00;1.47;;;;;;;;;;4942519;29;20249;-75
2022/09/01 09:50:22;;;;;;;3.43;1.37;;;;;;;;;;4943669;28;20305;-74
2022/09/01 09:52:51;;;;;;;2.83;1.20;;;;;;;;;;4945568;28;20231;-74
2022/09/01 09:55:24;;;;;;;2.10;1.30;;;;;;;;;;4945650;28;20650;-74
2022/09/01 09:57:52;;;;;;;2.23;1.20;;;;;;;;;;4943853;28;20346;-74
2022/09/01 10:00:21;;;;;;;3.07;1.10;;;;;;;;;;4945681;28;20788;-74
2022/09/01 10:02:52;;;;;;;4.00;1.27;;;;;;;;;;4947056;28;20257;-74
2022/09/01 10:05:25;;;;;;;3.47;1.30;;;;;;;;;;4944936;28;20214;-75
2022/09/01 10:07:52;;;;;;;6.10;1.33;;;;;;;;;;4945029;28;20309;-74
2022/09/01 10:10:28;;;;;;;1.80;1.30;;;;;;;;;;4950794;28;20753;-74
2022/09/01 10:12:56;;;;;;;4.50;1.50;;;;;;;;;;4946545;28;20229;-74
2022/09/01 10:15:24;;;;;;;2.60;1.37;;;;;;;;;;4942530;29;20199;-74
2022/09/01 10:17:53;;;;;;;3.20;1.30;;;;;;;;;;4948119;28;20238;-75
2022/09/01 10:20:21;;;;;;;2.67;1.00;;;;;;;;;;4945043;28;20651;-75
2022/09/01 10:22:49;;;;;;;4.47;2.07;;;;;;;;;;4946123;28;20217;-75
2022/09/01 10:25:19;;;;;;;2.50;1.30;;;;;;;;;;4947348;28;20203;-74
2022/09/01 10:27:49;;;;;;;2.03;1.50;;;;;;;;;;4946895;28;20715;-74
2022/09/01 10:30:16;;;;;;;3.20;1.23;;;;;;;;;;4945583;28;20293;-74
2022/09/01 10:32:45;;;;;;;3.27;1.50;;;;;;;;;;4946909;29;20755;-74
2022/09/01 10:35:15;;;;;;;3.37;1.40;;;;;;;;;;4948530;29;20214;-75
2022/09/01 10:37:42;;;;;;;4.10;1.40;;;;;;;;;;4951342;28;20226;-76
2022/09/01 10:40:27;;;;;;;5.60;1.63;;;;;;;;;;4948928;28;20207;-74
2022/09/01 10:42:57;;;;;;;4.90;1.30;;;;;;;;;;4940678;28;20202;-75
2022/09/01 10:45:31;;;;;;;4.37;1.10;;;;;;;;;;4951498;28;20290;-75
2022/09/01 10:48:13;;;;;;;3.63;1.30;;;;;;;;;;4946945;29;20657;-75
2022/09/01 10:50:41;;;;;;;3.77;1.50;;;;;;;;;;4947895;29;20246;-75
2022/09/01 10:53:08;;;;;;;1.67;1.10;;;;;;;;;;4947347;28;20328;-75
2022/09/01 10:55:44;;;;;;;1.67;1.00;;;;;;;;;;4949887;29;20217;-75
2022/09/01 10:58:29;;;;;;;1.87;1.23;;;;;;;;;;4949926;29;20202;-75
2022/09/01 11:01:01;;;;;;;5.67;1.20;;;;;;;;;;4950726;28;20300;-74
2022/09/01 11:03:37;;;;;;;3.43;1.10;;;;;;;;;;4947920;28;20206;-76
2022/09/01 11:06:06;;;;;;;3.27;1.37;;;;;;;;;;4949621;28;20229;-74
2022/09/01 11:08:43;;;;;;;2.20;1.20;;;;;;;;;;4949660;29;20216;-75
2022/09/01 11:11:15;;;;;;;1.83;1.20;;;;;;;;;;4952271;28;20289;-75
2022/09/01 11:13:44;;;;;;;5.97;1.30;;;;;;;;;;4949231;29;21012;-74
2022/09/01 11:16:41;;;;;;;1.53;1.10;;;;;;;;;;4948384;28;20234;-75
2022/09/01 11:19:32;;;;;;;1.87;1.10;;;;;;;;;;4947129;29;20555;-74
2022/09/01 11:22:09;;;;;;;5.60;1.23;;;;;;;;;;4951769;28;20272;-74
2022/09/01 11:24:48;;;;;;;2.50;1.50;;;;;;;;;;4962762;29;20220;-75
2022/09/01 11:27:30;;;;;;;3.03;1.63;;;;;;;;;;4946017;28;20231;-74
2022/09/01 11:29:58;;;;;;;2.33;1.40;;;;;;;;;;4948888;28;20289;-74
2022/09/01 11:32:28;;;;;;;2.57;1.50;;;;;;;;;;4947894;29;20577;-75
2022/09/01 11:34:58;;;;;;;3.57;1.27;;;;;;;;;;4949917;29;20216;-73
2022/09/01 11:37:26;;;;;;;3.30;1.40;;;;;;;;;;4948543;28;20218;-74
2022/09/01 11:39:57;;;;;;;1.70;1.10;;;;;;;;;;4947777;28;20293;-74
2022/09/01 11:42:26;;;;;;;2.20;1.30;;;;;;;;;;4946921;28;20205;-74
2022/09/01 11:44:56;;;;;;;2.63;1.27;;;;;;;;;;4946524;28;20245;-75
2022/09/01 11:47:25;;;;;;;2.57;1.30;;;;;;;;;;4945953;28;20234;-74
2022/09/01 11:49:54;;;;;;;6.83;1.60;;;;;;;;;;4948744;29;20214;-74
2022/09/01 11:52:24;;;;;;;1.97;1.17;;;;;;;;;;4944947;28;20225;-74
2022/09/01 11:54:51;;;;;;;1.73;1.27;;;;;;;;;;4948806;28;20210;-74
2022/09/01 11:57:20;;;;;;;2.80;1.47;;;;;;;;;;4948945;28;20735;-75
2022/09/01 11:59:47;;;;;;;5.57;1.60;;;;;;;;;;4947678;28;20301;-75
2022/09/01 12:02:18;;;;;;;3.77;1.37;;;;;;;;;;4946326;28;20736;-75
2022/09/01 12:04:45;;;;;;;3.20;1.20;;;;;;;;;;4946781;28;21158;-75
2022/09/01 12:07:14;;;;;;;3.27;1.80;;;;;;;;;;4945641;28;20769;-74
2022/09/01 12:09:44;;;;;;;2.70;1.60;;;;;;;;;;4945372;28;20302;-75
2022/09/01 12:12:27;;;;;;;3.73;1.70;;;;;;;;;;4948592;28;20222;-74
2022/09/01 12:14:58;;;;;;;2.83;1.20;;;;;;;;;;4939640;28;20206;-74
2022/09/01 12:17:25;;;;;;;2.20;1.20;;;;;;;;;;4942623;28;20324;-74
2022/09/01 12:19:53;;;;;;;2.50;1.40;;;;;;;;;;4944006;28;20205;-74
2022/09/01 12:22:21;;;;;;;4.13;1.50;;;;;;;;;;4938348;28;20661;-74
2022/09/01 12:24:50;;;;;;;2.60;1.30;;;;;;;;;;4942543;28;20672;-74
2022/09/01 12:27:17;;;;;;;2.47;1.30;;;;;;;;;;4944537;28;20226;-75
2022/09/01 12:29:45;;;;;;;2.67;1.40;;;;;;;;;;4948443;29;20317;-74
2022/09/01 12:32:12;;;;;;;1.90;1.40;;;;;;;;;;4944775;28;20698;-74
2022/09/01 12:34:41;;;;;;;3.70;1.63;;;;;;;;;;4941152;28;20243;-76
2022/09/01 12:37:11;;;;;;;2.63;1.33;;;;;;;;;;4943634;28;20346;-75
2022/09/01 12:39:38;;;;;;;4.37;1.30;;;;;;;;;;4944533;28;20583;-75
2022/09/01 12:42:10;;;;;;;1.83;1.40;;;;;;;;;;4948720;28;20214;-75
2022/09/01 12:44:45;;;;;;;2.57;1.57;;;;;;;;;;4946890;29;20668;-75
2022/09/01 12:47:13;;;;;;;3.73;1.63;;;;;;;;;;4946019;28;20242;-75
2022/09/01 12:49:41;;;;;;;3.87;1.37;;;;;;;;;;4946100;28;20218;-74
2022/09/01 12:52:14;;;;;;;1.60;1.30;;;;;;;;;;4949679;28;20681;-75
2022/09/01 12:54:42;;;;;;;1.90;1.40;;;;;;;;;;4947541;29;20297;-75
2022/09/01 12:57:10;;;;;;;2.17;1.37;;;;;;;;;;4946369;28;20248;-74
2022/09/01 12:59:38;;;;;;;2.33;1.30;;;;;;;;;;4945551;29;20246;-75
2022/09/01 13:02:23;;;;;;;4.07;1.33;;;;;;;;;;4947973;28;20297;-75
2022/09/01 13:04:51;;;;;;;3.37;1.50;;;;;;;;;;4945906;29;20293;-76
2022/09/01 13:07:18;;;;;;;3.87;1.33;;;;;;;;;;4945897;28;20236;-75
2022/09/01 13:09:45;;;;;;;6.13;1.37;;;;;;;;;;4944771;29;20213;-74
2022/09/01 13:12:16;;;;;;;3.83;1.50;;;;;;;;;;4947024;29;20317;-76
2022/09/01 13:14:43;;;;;;;3.87;1.43;;;;;;;;;;4946542;28;20198;-75
2022/09/01 13:17:11;;;;;;;4.30;1.50;;;;;;;;;;4944827;28;20317;-76
2022/09/01 13:19:38;;;;;;;3.47;1.70;;;;;;;;;;4944309;28;20576;-74
2022/09/01 13:22:06;;;;;;;2.57;1.53;;;;;;;;;;4948311;28;20199;-76
2022/09/01 13:24:39;;;;;;;4.33;1.47;;;;;;;;;;4941879;29;20214;-76
2022/09/01 13:27:11;;;;;;;3.83;1.40;;;;;;;;;;4946898;28;20222;-75
2022/09/01 13:29:40;;;;;;;3.07;1.60;;;;;;;;;;4945419;28;20218;-75
2022/09/01 13:32:07;;;;;;;4.83;1.40;;;;;;;;;;4945951;28;20313;-75
2022/09/01 13:34:35;;;;;;;7.83;1.60;;;;;;;;;;4943823;28;20609;-75
2022/09/01 13:37:02;;;;;;;2.43;1.27;;;;;;;;;;4942713;29;20706;-76
2022/09/01 13:39:29;;;;;;;2.73;1.20;;;;;;;;;;4943064;28;20210;-75
2022/09/01 13:41:56;;;;;;;2.97;1.60;;;;;;;;;;4942840;29;20584;-75
2022/09/01 13:44:25;;;;;;;3.10;1.53;;;;;;;;;;4945398;28;20676;-74
2022/09/01 13:46:56;;;;;;;3.57;1.33;;;;;;;;;;4943679;28;20941;-75
2022/09/01 13:49:23;;;;;;;5.60;1.50;;;;;;;;;;4945634;29;20206;-75
2022/09/01 13:51:51;;;;;;;2.33;1.20;;;;;;;;;;4941634;28;20211;-76
2022/09/01 13:54:18;;;;;;;1.83;1.27;;;;;;;;;;4941407;28;20217;-75
2022/09/01 13:56:45;;;;;;;2.30;1.30;;;;;;;;;;4944624;28;20706;-75
2022/09/01 13:59:13;;;;;;;2.43;1.20;;;;;;;;;;4945414;28;20284;-75
2022/09/01 14:01:41;;;;;;;1.47;1.07;;;;;;;;;;4945866;29;20221;-76
2022/09/01 14:04:11;;;;;;;2.63;1.50;;;;;;;;;;4953456;28;20616;-75
2022/09/01 14:06:40;;;;;;;4.40;1.30;;;;;;;;;;4946659;28;20230;-74
2022/09/01 14:09:07;;;;;;;2.50;1.30;;;;;;;;;;4944512;28;20598;-75
2022/09/01 14:11:35;;;;;;;3.80;1.20;;;;;;;;;;4949372;28;20206;-76
2022/09/01 14:14:02;;;;;;;4.00;1.10;;;;;;;;;;4945489;28;20240;-75
2022/09/01 14:16:29;;;;;;;1.50;1.20;;;;;;;;;;4948825;28;20223;-76
2022/09/01 14:18:58;;;;;;;2.83;1.33;;;;;;;;;;4947588;28;20214;-76
2022/09/01 14:21:27;;;;;;;2.53;1.20;;;;;;;;;;4942098;28;20682;-76
2022/09/01 14:23:54;;;;;;;4.63;1.30;;;;;;;;;;4950685;28;20212;-75
2022/09/01 14:26:22;;;;;;;2.73;1.20;;;;;;;;;;4941636;28;20238;-74
2022/09/01 14:28:49;;;;;;;3.70;1.30;;;;;;;;;;4946324;28;20211;-75
2022/09/01 14:31:18;;;;;;;5.70;1.57;;;;;;;;;;4951387;28;20732;-76
2022/09/01 14:33:45;;;;;;;5.83;1.30;;;;;;;;;;4953997;28;20304;-75
2022/09/01 14:36:17;;;;;;;3.93;1.60;;;;;;;;;;4941081;28;20230;-75
2022/09/01 14:38:47;;;;;;;1.93;1.27;;;;;;;;;;4944303;28;20594;-76
2022/09/01 14:41:15;;;;;;;2.03;1.33;;;;;;;;;;4950473;28;20210;-75
2022/09/01 14:43:42;;;;;;;2.53;1.20;;;;;;;;;;4946190;28;20202;-76
2022/09/01 14:46:11;;;;;;;1.97;1.33;;;;;;;;;;4946181;28;20322;-75
2022/09/01 14:48:38;;;;;;;5.77;1.37;;;;;;;;;;4945170;28;20215;-75
2022/09/01 14:51:06;;;;;;;2.07;1.30;;;;;;;;;;4950992;28;20220;-75
2022/09/01 14:53:33;;;;;;;2.03;1.33;;;;;;;;;;4945772;28;20720;-76
2022/09/01 14:56:03;;;;;;;4.93;1.40;;;;;;;;;;4945471;28;20244;-76
2022/09/01 14:58:30;;;;;;;1.70;1.40;;;;;;;;;;4948357;28;20653;-75